Cap Bonavista — A8CH8 — position and weather

sailwx.info

Track history (hours):
 
Tides and Currents Weather Stations Pressure Air Temp Water Temp Dewpoint Dewpoint Depression Visibility Wind Speed Wind Dir Waves Ship Positions

Cap Bonavista

Last reported at 2016-Jul-11 06:33 UTC. Time now 2016-Aug-24 06:36 UTC.
Position N 39°23' W 000°16'.
Warning: this ship's position is 44 days out of date.

Length 200 m; beam 29.8 m; draft 11.6 m.

Type: Cargo ship. MMSI: 636090647.

Date/timePositionNaut miles runAvg speedWind from/ knotsBaromVisibWave heightAir tempDewpointWater temp
2016-Jul-11 06:33N 39°23' W 000°16'0 0.0
2016-Jul-10 08:33N 39°23' W 000°16'0 0.0
2016-Jul-10 07:33N 39°23' W 000°16'0 0.1
2016-Jul-10 06:21N 39°23' W 000°16'0 0.0
2016-Jul-10 04:33N 39°23' W 000°16'0 0.0
2016-Jul-10 03:33N 39°23' W 000°16'0 0.0
2016-Jul-09 22:27N 39°23' W 000°16'0 0.0
2016-Jul-09 06:33N 39°23' W 000°16'1 0.1
2016-Jul-08 21:21N 39°23' W 000°16'5 5.8
2016-Jul-08 20:32N 39°27' W 000°19'0 0.0
2016-Jul-08 19:32N 39°27' W 000°19'0 0.0
2016-Jul-08 18:32N 39°27' W 000°19'0 0.0
2016-Jul-08 17:29N 39°27' W 000°19'0 0.0
2016-Jul-08 16:29N 39°27' W 000°19'0 0.0
2016-Jul-08 15:26N 39°27' W 000°19'0 0.0
2016-Jul-08 14:32N 39°27' W 000°19'0 0.0
2016-Jul-08 13:33N 39°27' W 000°19'0 0.1
2016-Jul-08 12:34N 39°27' W 000°19'0 0.1
2016-Jul-08 11:33N 39°27' W 000°19'0 0.0
2016-Jul-08 10:33N 39°27' W 000°19'0 0.0
2016-Jul-08 09:33N 39°27' W 000°19'0 0.0
2016-Jul-08 08:33N 39°27' W 000°19'0 0.0
2016-Jul-08 07:33N 39°27' W 000°19'0 0.0
2016-Jul-08 06:33N 39°27' W 000°19'0 0.0
2016-Jul-08 04:33N 39°27' W 000°19'0 0.0
2016-Jul-08 03:33N 39°27' W 000°19'0 0.0
2016-Jul-08 02:33N 39°27' W 000°19'0 0.0
2016-Jul-08 01:33N 39°27' W 000°19'0 0.0
2016-Jul-08 00:33N 39°27' W 000°19'0 0.0
2016-Jul-07 23:33N 39°27' W 000°19'0 0.0
2016-Jul-07 22:33N 39°27' W 000°19'0 0.0
2016-Jul-07 21:33N 39°27' W 000°19'0 0.0
2016-Jul-07 20:33N 39°27' W 000°19'0 0.0
2016-Jul-07 19:33N 39°27' W 000°19'0 0.0
2016-Jul-07 18:33N 39°27' W 000°19'0 0.0
2016-Jul-07 17:33N 39°27' W 000°19'0 0.0
2016-Jul-07 16:33N 39°27' W 000°19'0 0.0
2016-Jul-07 15:33N 39°27' W 000°19'0 0.0
2016-Jul-07 14:33N 39°27' W 000°19'0 0.0
2016-Jul-07 13:33N 39°27' W 000°19'0 0.0
2016-Jul-07 12:33N 39°27' W 000°19'0 0.0
2016-Jul-07 11:33N 39°27' W 000°19'0 0.0
2016-Jul-07 10:33N 39°27' W 000°19'0 0.0
2016-Jul-07 09:33N 39°27' W 000°19'0 0.0
2016-Jul-07 08:33N 39°27' W 000°19'0 0.0
2016-Jul-07 07:33N 39°27' W 000°19'0 0.0
2016-Jul-07 06:33N 39°27' W 000°19'0 0.0
2016-Jul-07 05:33N 39°27' W 000°19'0 0.0
2016-Jul-07 04:33N 39°27' W 000°19'0 0.0
2016-Jul-07 03:33N 39°27' W 000°19'0 0.0
2016-Jul-07 02:33N 39°27' W 000°19'0 0.0
2016-Jul-07 01:33N 39°27' W 000°19'0 0.0
2016-Jul-07 00:33N 39°27' W 000°19'0 0.0
2016-Jul-06 23:30N 39°27' W 000°19'0 0.0
2016-Jul-06 22:30N 39°27' W 000°19'0 0.0
2016-Jul-06 21:33N 39°27' W 000°19'0 0.0
2016-Jul-06 20:30N 39°27' W 000°19'0 0.0
2016-Jul-06 19:33N 39°27' W 000°19'0 0.0
2016-Jul-06 18:33N 39°27' W 000°19'0 0.0
2016-Jul-06 17:24N 39°27' W 000°19'0 0.0
2016-Jul-06 15:33N 39°27' W 000°19'0 0.0
2016-Jul-06 14:33N 39°27' W 000°19'0 0.0
2016-Jul-06 13:33N 39°27' W 000°19'0 0.0
2016-Jul-06 12:33N 39°27' W 000°19'0 0.0
2016-Jul-06 11:33N 39°27' W 000°19'0 0.0
2016-Jul-06 10:33N 39°27' W 000°19'0 0.0
2016-Jul-06 09:33N 39°27' W 000°19'0 0.0
2016-Jul-06 08:33N 39°27' W 000°19'0 0.0
2016-Jul-06 07:33N 39°27' W 000°19'1 1.0
2016-Jul-06 06:33N 39°26' W 000°19'7 7.1
2016-Jul-06 05:33N 39°24' W 000°10'3210.5
2016-Jul-06 02:31N 38°59' E 000°15'27 8.2
2016-Jul-05 23:15N 38°32' E 000°21'9 9.8
2016-Jul-05 22:21N 38°26' E 000°14'810.2
2016-Jul-05 21:34N 38°19' E 000°08'1110.7
2016-Jul-05 20:33N 38°10' E 000°01'1210.5
2016-Jul-05 19:27N 38°00' W 000°07'1310.2
2016-Jul-05 18:12N 37°50' W 000°16'710.4
2016-Jul-05 17:33N 37°44' W 000°21'1110.5
2016-Jul-05 16:33N 37°35' W 000°29'1010.0
2016-Jul-05 15:33N 37°28' W 000°37'1010.2
2016-Jul-05 14:33N 37°21' W 000°47'1010.3
2016-Jul-05 13:33N 37°15' W 000°56'1110.6
2016-Jul-05 12:28N 37°07' W 001°08'20711.3
2016-Jul-04 18:05N 35°60' W 005°11'713.7
2016-Jul-04 17:33N 35°59' W 005°20'56512.4
2016-Jul-02 20:10N 29°13' W 013°07'712.1
2016-Jul-02 19:33N 29°07' W 013°12'1212.0
2016-Jul-02 18:33N 28°58' W 013°21'1212.0
2016-Jul-02 17:33N 28°48' W 013°29'2512.1
2016-Jul-02 15:29N 28°26' W 013°42'1511.7
2016-Jul-02 14:13N 28°13' W 013°50'811.6
2016-Jul-02 13:31N 28°06' W 013°54'1312.3
2016-Jul-02 12:29N 27°55' W 014°01'1212.5
2016-Jul-02 11:33N 27°45' W 014°07'1712.6
2016-Jul-02 10:13N 27°30' W 014°16'1012.3
2016-Jul-02 09:25N 27°21' W 014°21'  
Track history (hours):
 
Tides and Currents Weather Stations Pressure Air Temp Water Temp Dewpoint Dewpoint Depression Visibility Wind Speed Wind Dir Waves Ship Positions

Cap Bonavista

Last reported at 2016-Jul-11 06:33 UTC. Time now 2016-Aug-24 06:36 UTC.
Position N 39°23' W 000°16'.
Warning: this ship's position is 44 days out of date.

Length 200 m; beam 29.8 m; draft 11.6 m.

Type: Cargo ship. MMSI: 636090647.

Date/timePositionNaut miles runAvg speedWind from/ knotsBaromVisibWave heightAir tempDewpointWater temp
2016-Jul-11 06:33N 39°23' W 000°16'0 0.0
2016-Jul-10 08:33N 39°23' W 000°16'0 0.0
2016-Jul-10 07:33N 39°23' W 000°16'0 0.1
2016-Jul-10 06:21N 39°23' W 000°16'0 0.0
2016-Jul-10 04:33N 39°23' W 000°16'0 0.0
2016-Jul-10 03:33N 39°23' W 000°16'0 0.0
2016-Jul-09 22:27N 39°23' W 000°16'0 0.0
2016-Jul-09 06:33N 39°23' W 000°16'1 0.1
2016-Jul-08 21:21N 39°23' W 000°16'5 5.8
2016-Jul-08 20:32N 39°27' W 000°19'0 0.0
2016-Jul-08 19:32N 39°27' W 000°19'0 0.0
2016-Jul-08 18:32N 39°27' W 000°19'0 0.0
2016-Jul-08 17:29N 39°27' W 000°19'0 0.0
2016-Jul-08 16:29N 39°27' W 000°19'0 0.0
2016-Jul-08 15:26N 39°27' W 000°19'0 0.0
2016-Jul-08 14:32N 39°27' W 000°19'0 0.0
2016-Jul-08 13:33N 39°27' W 000°19'0 0.1
2016-Jul-08 12:34N 39°27' W 000°19'0 0.1
2016-Jul-08 11:33N 39°27' W 000°19'0 0.0
2016-Jul-08 10:33N 39°27' W 000°19'0 0.0
2016-Jul-08 09:33N 39°27' W 000°19'0 0.0
2016-Jul-08 08:33N 39°27' W 000°19'0 0.0
2016-Jul-08 07:33N 39°27' W 000°19'0 0.0
2016-Jul-08 06:33N 39°27' W 000°19'0 0.0
2016-Jul-08 04:33N 39°27' W 000°19'0 0.0
2016-Jul-08 03:33N 39°27' W 000°19'0 0.0
2016-Jul-08 02:33N 39°27' W 000°19'0 0.0
2016-Jul-08 01:33N 39°27' W 000°19'0 0.0
2016-Jul-08 00:33N 39°27' W 000°19'0 0.0
2016-Jul-07 23:33N 39°27' W 000°19'0 0.0
2016-Jul-07 22:33N 39°27' W 000°19'0 0.0
2016-Jul-07 21:33N 39°27' W 000°19'0 0.0
2016-Jul-07 20:33N 39°27' W 000°19'0 0.0
2016-Jul-07 19:33N 39°27' W 000°19'0 0.0
2016-Jul-07 18:33N 39°27' W 000°19'0 0.0
2016-Jul-07 17:33N 39°27' W 000°19'0 0.0
2016-Jul-07 16:33N 39°27' W 000°19'0 0.0
2016-Jul-07 15:33N 39°27' W 000°19'0 0.0
2016-Jul-07 14:33N 39°27' W 000°19'0 0.0
2016-Jul-07 13:33N 39°27' W 000°19'0 0.0
2016-Jul-07 12:33N 39°27' W 000°19'0 0.0
2016-Jul-07 11:33N 39°27' W 000°19'0 0.0
2016-Jul-07 10:33N 39°27' W 000°19'0 0.0
2016-Jul-07 09:33N 39°27' W 000°19'0 0.0
2016-Jul-07 08:33N 39°27' W 000°19'0 0.0
2016-Jul-07 07:33N 39°27' W 000°19'0 0.0
2016-Jul-07 06:33N 39°27' W 000°19'0 0.0
2016-Jul-07 05:33N 39°27' W 000°19'0 0.0
2016-Jul-07 04:33N 39°27' W 000°19'0 0.0
2016-Jul-07 03:33N 39°27' W 000°19'0 0.0
2016-Jul-07 02:33N 39°27' W 000°19'0 0.0
2016-Jul-07 01:33N 39°27' W 000°19'0 0.0
2016-Jul-07 00:33N 39°27' W 000°19'0 0.0
2016-Jul-06 23:30N 39°27' W 000°19'0 0.0
2016-Jul-06 22:30N 39°27' W 000°19'0 0.0
2016-Jul-06 21:33N 39°27' W 000°19'0 0.0
2016-Jul-06 20:30N 39°27' W 000°19'0 0.0
2016-Jul-06 19:33N 39°27' W 000°19'0 0.0
2016-Jul-06 18:33N 39°27' W 000°19'0 0.0
2016-Jul-06 17:24N 39°27' W 000°19'0 0.0
2016-Jul-06 15:33N 39°27' W 000°19'0 0.0
2016-Jul-06 14:33N 39°27' W 000°19'0 0.0
2016-Jul-06 13:33N 39°27' W 000°19'0 0.0
2016-Jul-06 12:33N 39°27' W 000°19'0 0.0
2016-Jul-06 11:33N 39°27' W 000°19'0 0.0
2016-Jul-06 10:33N 39°27' W 000°19'0 0.0
2016-Jul-06 09:33N 39°27' W 000°19'0 0.0
2016-Jul-06 08:33N 39°27' W 000°19'0 0.0
2016-Jul-06 07:33N 39°27' W 000°19'1 1.0
2016-Jul-06 06:33N 39°26' W 000°19'7 7.1
2016-Jul-06 05:33N 39°24' W 000°10'3210.5
2016-Jul-06 02:31N 38°59' E 000°15'27 8.2
2016-Jul-05 23:15N 38°32' E 000°21'9 9.8
2016-Jul-05 22:21N 38°26' E 000°14'810.2
2016-Jul-05 21:34N 38°19' E 000°08'1110.7
2016-Jul-05 20:33N 38°10' E 000°01'1210.5
2016-Jul-05 19:27N 38°00' W 000°07'1310.2
2016-Jul-05 18:12N 37°50' W 000°16'710.4
2016-Jul-05 17:33N 37°44' W 000°21'1110.5
2016-Jul-05 16:33N 37°35' W 000°29'1010.0
2016-Jul-05 15:33N 37°28' W 000°37'1010.2
2016-Jul-05 14:33N 37°21' W 000°47'1010.3
2016-Jul-05 13:33N 37°15' W 000°56'1110.6
2016-Jul-05 12:28N 37°07' W 001°08'20711.3
2016-Jul-04 18:05N 35°60' W 005°11'713.7
2016-Jul-04 17:33N 35°59' W 005°20'56512.4
2016-Jul-02 20:10N 29°13' W 013°07'712.1
2016-Jul-02 19:33N 29°07' W 013°12'1212.0
2016-Jul-02 18:33N 28°58' W 013°21'1212.0
2016-Jul-02 17:33N 28°48' W 013°29'2512.1
2016-Jul-02 15:29N 28°26' W 013°42'1511.7
2016-Jul-02 14:13N 28°13' W 013°50'811.6
2016-Jul-02 13:31N 28°06' W 013°54'1312.3
2016-Jul-02 12:29N 27°55' W 014°01'1212.5
2016-Jul-02 11:33N 27°45' W 014°07'1712.6
2016-Jul-02 10:13N 27°30' W 014°16'1012.3
2016-Jul-02 09:25N 27°21' W 014°21'  

Dump ship's entire track history